Time;durP1;ratioP1;P1;durP2;ratioP2;P2;SDS_P1;SDS_P2;PMS_P1;PMS_P2;Temp;Humidity;BMP_temperature;BMP_pressure;BME280_temperature;BME280_humidity;BME280_pressure;Samples;Min_cycle;Max_cycle;Signal;HPM_P1;HPM_P2
2022/02/07 00:11:01;;;;;;;2.90;1.50;;;;;;;4.61;80.14;96743.52;220668;1273;22572;-72
2022/02/07 00:16:34;;;;;;;4.30;1.80;;;;;;;4.60;80.34;96753.84;220071;1274;25271;-72
2022/02/07 00:28:53;;;;;;;4.00;1.80;;;;;;;4.58;80.52;96758.71;220287;1273;22724;-72
2022/02/07 00:34:35;;;;;;;;;;;;;;;;;;;;;
2022/02/07 00:46:57;;;;;;;;;;;;;;;;;;;;;
2022/02/07 00:52:42;;;;;;;2.90;1.60;;;;;;;4.49;80.94;96750.91;220148;1273;24209;-72
2022/02/07 00:58:31;;;;;;;2.60;1.40;;;;;;;4.49;81.18;96756.80;220306;1273;22545;-71
2022/02/07 01:04:20;;;;;;;1.60;0.80;;;;;;;4.52;81.02;96745.47;220074;1273;24286;-72
2022/02/07 01:10:08;;;;;;;1.40;0.80;;;;;;;4.58;80.75;96727.37;220308;1273;24830;-72
2022/02/07 01:23:37;;;;;;;0.90;0.60;;;;;;;4.58;80.27;96698.72;220135;1273;22564;-72
2022/02/07 02:01:02;;;;;;;0.70;0.60;;;;;;;4.46;79.92;96658.11;219867;1274;25431;-72
2022/02/07 02:06:48;;;;;;;1.80;0.80;;;;;;;4.48;79.75;96653.81;220219;1273;25265;-71
2022/02/07 02:38:12;;;;;;;1.80;0.90;;;;;;;4.32;80.48;96633.67;220199;1273;22560;-71
2022/02/07 02:56:32;;;;;;;1.60;1.10;;;;;;;4.17;81.19;96673.33;220345;1273;22571;-71
2022/02/07 03:03:04;;;;;;;1.20;1.10;;;;;;;4.10;81.64;96673.73;220303;1273;22607;-72
2022/02/07 03:08:29;;;;;;;1.20;0.90;;;;;;;4.07;81.70;96658.27;220218;1273;25428;-72
2022/02/07 03:14:02;;;;;;;0.70;0.70;;;;;;;4.05;81.43;96643.04;220226;1273;22583;-71
2022/02/07 03:26:04;;;;;;;1.40;0.70;;;;;;;4.00;81.67;96640.77;220366;1273;22573;-73
2022/02/07 03:31:15;;;;;;;0.90;0.50;;;;;;;3.92;82.00;96641.89;220426;1273;22547;-72
2022/02/07 03:37:29;;;;;;;0.70;0.60;;;;;;;3.81;81.99;96650.33;220434;1273;22559;-72
2022/02/07 03:43:18;;;;;;;;;;;;;;;3.76;82.17;96660.70;220169;1273;24141;-72
2022/02/07 03:49:01;;;;;;;;;;;;;;;3.74;82.34;96663.27;220058;1274;23321;-72
2022/02/07 04:07:47;;;;;;;;;;;;;;;3.75;82.43;96688.67;219946;1274;24291;-72
2022/02/07 04:13:55;;;;;;;;;;;;;;;3.80;82.55;96684.87;220191;1273;22614;-72
2022/02/07 04:19:35;;;;;;;;;;;;;;;3.84;82.50;96678.33;219993;1274;22601;-73
2022/02/07 04:25:37;;;;;;;;;;;;;;;;;;;;;
2022/02/07 04:31:37;;;;;;;;;;;;;;;3.74;82.65;96686.36;220195;1273;22587;-72
2022/02/07 04:37:47;;;;;;;;;;;;;;;3.69;82.97;96699.97;220331;1273;24378;-72
2022/02/07 04:43:20;;;;;;;;;;;;;;;3.66;83.06;96719.72;220148;1273;22736;-72
2022/02/07 04:48:46;;;;;;;;;;;;;;;3.66;83.02;96736.83;220251;1273;22563;-72
2022/02/07 05:01:24;;;;;;;;;;;;;;;;;;;;;
2022/02/07 05:19:01;;;;;;;;;;;;;;;3.32;84.30;96880.63;220246;1273;22558;-73
2022/02/07 05:24:32;;;;;;;;;;;;;;;2.44;84.01;96892.71;220258;1273;25344;-73
2022/02/07 05:29:59;;;;;;;;;;;;;;;1.84;84.11;96901.07;220223;1273;24245;-74
2022/02/07 05:35:22;;;;;;;;;;;;;;;1.49;84.76;96908.58;220284;1273;22547;-75
2022/02/07 05:41:02;;;;;;;;;;;;;;;1.23;85.07;96920.28;220413;1273;23405;-75
2022/02/07 05:46:13;;;;;;;;;;;;;;;1.03;85.03;96933.37;220057;1273;25328;-74
2022/02/07 05:51:30;;;;;;;;;;;;;;;0.80;85.32;96951.23;220251;1273;23452;-75
2022/02/07 05:56:58;;;;;;;;;;;;;;;0.63;85.42;96969.05;219974;1274;22556;-75
2022/02/07 06:02:49;;;;;;;;;;;;;;;0.54;86.02;96989.89;219931;1273;22547;-74
2022/02/07 06:08:32;;;;;;;;;;;;;;;0.50;86.21;97004.02;220094;1273;25676;-76
2022/02/07 06:13:51;;;;;;;;;;;;;;;0.48;86.30;97015.56;220185;1273;23262;-74
2022/02/07 06:19:13;;;;;;;;;;;;;;;0.52;86.92;97033.57;219983;1273;24326;-76
2022/02/07 06:24:29;;;;;;;;;;;;;;;0.54;87.32;97047.13;220180;1273;22541;-76
2022/02/07 06:29:44;;;;;;;;;;;;;;;0.57;87.41;97062.66;219962;1273;22528;-75
2022/02/07 06:35:07;;;;;;;;;;;;;;;0.65;87.30;97074.20;219861;1274;22558;-75
2022/02/07 06:40:22;;;;;;;;;;;;;;;0.73;87.54;97092.80;220158;1273;22958;-75
2022/02/07 06:45:32;;;;;;;;;;;;;;;0.82;87.80;97110.02;220257;1272;22534;-74
2022/02/07 06:51:25;;;;;;;;;;;;;;;;;;;;;
2022/02/07 06:56:31;;;;;;;;;;;;;;;0.95;88.06;97133.21;220750;1273;22541;-73
2022/02/07 07:01:36;;;;;;;;;;;;;;;0.98;88.30;97142.64;220798;1273;22579;-72
2022/02/07 07:13:07;;;;;;;;;;;;;;;;;;;;;
2022/02/07 07:18:33;;;;;;;;;;;;;;;1.17;88.26;97168.94;220834;1273;23437;-76
2022/02/07 07:23:44;;;;;;;;;;;;;;;1.23;87.88;97180.16;220949;1273;24262;-73
2022/02/07 07:28:49;;;;;;;;;;;;;;;1.28;87.53;97203.80;220318;1273;22616;-72
2022/02/07 07:34:18;;;;;;;;;;;;;;;1.33;86.82;97223.63;220506;1273;22516;-73
2022/02/07 07:39:27;;;;;;;;;;;;;;;1.37;86.08;97255.93;220422;1273;22599;-73
2022/02/07 07:44:34;;;;;;;;;;;;;;;1.38;85.33;97247.21;220658;1273;24253;-73
2022/02/07 08:02:01;;;;;;;;;;;;;;;1.45;84.16;97291.75;220659;1273;22549;-72
2022/02/07 08:07:39;;;;;;;;;;;;;;;1.49;83.90;97302.52;220602;1273;24225;-74
2022/02/07 08:12:48;;;;;;;;;;;;;;;1.53;83.14;97326.32;220780;1273;22546;-75
2022/02/07 08:17:59;;;;;;;;;;;;;;;1.60;82.67;97331.02;220847;1273;22558;-75
2022/02/07 08:23:46;;;;;;;;;;;;;;;1.72;82.57;97346.01;220767;1273;22562;-73
2022/02/07 08:29:40;;;;;;;;;;;;;;;1.85;82.00;97349.95;220704;1273;24860;-73
2022/02/07 08:35:05;;;;;;;;;;;;;;;1.95;81.07;97358.77;220633;1273;25602;-74
2022/02/07 08:40:08;;;;;;;;;;;;;;;1.97;80.83;97375.34;220653;1274;24193;-73
2022/02/07 08:45:18;;;;;;;;;;;;;;;1.97;80.22;97384.91;220915;1273;24801;-72
2022/02/07 08:50:32;;;;;;;;;;;;;;;1.97;80.48;97405.71;220921;1273;22585;-74
2022/02/07 08:55:59;;;;;;;;;;;;;;;1.99;80.18;97418.55;220600;1273;25500;-73
2022/02/07 09:01:28;;;;;;;;;;;;;;;1.98;80.48;97425.38;220544;1273;22540;-73
2022/02/07 09:06:40;;;;;;;;;;;;;;;1.89;80.66;97439.36;220966;1273;22461;-74
2022/02/07 09:11:47;;;;;;;;;;;;;;;1.83;80.88;97456.21;220693;1273;25980;-73
2022/02/07 09:17:37;;;;;;;;;;;;;;;1.85;80.98;97474.33;220793;1273;25928;-73
2022/02/07 09:22:51;;;;;;;;;;;;;;;1.91;80.97;97480.46;220775;1273;25966;-75
2022/02/07 09:28:01;;;;;;;;;;;;;;;2.01;80.86;97482.47;220598;1273;22600;-73
2022/02/07 09:33:55;;;;;;;;;;;;;;;2.03;80.58;97495.63;220625;1273;25358;-73
2022/02/07 09:39:09;;;;;;;;;;;;;;;1.90;80.71;97514.52;220649;1273;22689;-72
2022/02/07 09:44:22;;;;;;;;;;;;;;;1.65;81.24;97547.86;220569;1273;22946;-73
2022/02/07 09:50:19;;;;;;;;;;;;;;;1.23;83.18;97562.02;220782;1273;22587;-72
2022/02/07 09:55:45;;;;;;;;;;;;;;;1.08;84.36;97567.00;220740;1273;26499;-70
2022/02/07 10:01:23;;;;;;;;;;;;;;;1.13;84.85;97571.04;220555;1273;22640;-71
2022/02/07 10:12:01;;;;;;;;;;;;;;;1.48;84.64;97575.78;220552;1273;25512;-72
2022/02/07 10:17:41;;;;;;;;;;;;;;;1.64;84.04;97582.23;220560;1273;23175;-71
2022/02/07 10:34:32;;;;;;;;;;;;;;;1.83;83.74;97577.48;220486;1273;22547;-71
2022/02/07 10:35:02;;;;;;;;;;;;;;;2.20;81.56;97598.73;222413;1273;22533;-74
2022/02/07 10:41:17;;;;;;;;;;;;;;;2.36;80.15;97605.20;222524;1273;22565;-74
2022/02/07 10:57:29;;;;;;;;;;;;;;;;;;;;;
2022/02/07 11:09:34;;;;;;;;;;;;;;;2.79;78.70;97648.90;217791;1273;3554058;-74
2022/02/07 11:15:30;;;;;;;;;;;;;;;2.77;77.42;97665.18;220476;1273;26587;-73
2022/02/07 11:33:55;;;;;;;;;;;;;;;2.61;76.66;97695.75;220795;1273;25662;-75
2022/02/07 11:39:11;;;;;;;;;;;;;;;2.50;76.88;97717.20;220750;1273;22541;-73
2022/02/07 11:44:46;;;;;;;;;;;;;;;;;;;;;
2022/02/07 11:50:42;;;;;;;;;;;;;;;2.31;77.93;97729.04;220795;1273;22538;-73
2022/02/07 11:55:55;;;;;;;;;;;;;;;2.43;77.85;97732.30;220479;1273;22838;-73
2022/02/07 12:01:08;;;;;;;;;;;;;;;2.70;77.22;97743.30;220537;1273;22537;-73
2022/02/07 12:06:24;;;;;;;;;;;;;;;3.04;74.38;97747.25;220683;1273;25830;-73
2022/02/07 12:11:47;;;;;;;;;;;;;;;3.14;71.41;97744.45;220382;1273;22779;-74
2022/02/07 12:16:50;;;;;;;;;;;;;;;3.11;69.59;97756.20;220562;1273;24231;-73
2022/02/07 12:21:54;;;;;;;;;;;;;;;3.07;70.39;97777.11;220646;1273;24216;-73
2022/02/07 12:27:00;;;;;;;;;;;;;;;3.03;70.79;97781.98;220460;1273;23086;-73
2022/02/07 12:32:07;;;;;;;;;;;;;;;3.03;71.28;97793.60;220333;1274;22600;-73
2022/02/07 12:37:09;;;;;;;;;;;;;;;3.09;72.08;97792.71;220706;1273;22531;-74
2022/02/07 12:42:11;;;;;;;;;;;;;;;3.13;72.77;97808.13;220122;1273;24311;-73
2022/02/07 12:47:19;;;;;;;;;;;;;;;3.18;72.77;97813.58;220463;1273;23103;-74
2022/02/07 12:52:32;;;;;;;;;;;;;;;3.19;72.74;97816.96;220400;1274;25426;-74
2022/02/07 12:57:41;;;;;;;;;;;;;;;3.14;72.15;97834.16;220297;1274;22686;-73
2022/02/07 13:02:44;;;;;;;;;;;;;;;2.87;73.43;97864.70;220216;1275;24385;-73
2022/02/07 13:07:50;;;;;;;;;;;;;;;2.43;75.25;97848.39;220351;1274;22541;-73
2022/02/07 13:13:28;;;;;;;;;;;;;;;2.45;76.97;97860.73;220585;1273;25465;-74
2022/02/07 13:18:34;;;;;;;;;;;;;;;2.63;77.54;97873.13;220409;1273;22541;-74
2022/02/07 13:23:36;;;;;;;;;;;;;;;2.62;77.71;97879.83;220265;1274;22772;-74
2022/02/07 13:28:40;;;;;;;;;;;;;;;2.57;78.12;97898.00;220430;1274;26354;-74
2022/02/07 13:33:50;;;;;;;;;;;;;;;2.36;78.55;97926.29;220486;1274;24463;-73
2022/02/07 13:39:03;;;;;;;;;;;;;;;1.83;78.99;97927.34;220186;1274;25601;-71
2022/02/07 13:44:07;;;;;;;;;;;;;;;1.47;79.26;97937.85;220605;1274;25261;-72
2022/02/07 13:49:10;;;;;;;;;;;;;;;1.34;80.31;97949.65;220767;1274;22845;-71
2022/02/07 13:54:28;;;;;;;;;;;;;;;1.48;80.96;97962.83;220390;1274;23052;-71
2022/02/07 13:59:37;;;;;;;;;;;;;;;1.73;81.41;97978.52;220576;1274;24258;-72
2022/02/07 14:04:52;;;;;;;;;;;;;;;1.81;81.26;97993.35;220511;1274;25438;-72
2022/02/07 14:09:57;;;;;;;;;;;;;;;1.86;81.26;98003.23;220333;1274;22706;-71
2022/02/07 14:15:04;;;;;;;;;;;;;;;1.94;81.29;98011.47;220563;1274;24213;-71
2022/02/07 14:20:06;;;;;;;;;;;;;;;1.93;81.10;98023.83;220477;1274;23042;-72
2022/02/07 14:25:26;;;;;;;;;;;;;;;1.94;81.00;98038.20;220342;1274;22552;-70
2022/02/07 14:30:59;;;;;;;;;;;;;;;1.98;81.02;98047.02;220125;1274;25437;-72
2022/02/07 14:36:23;;;;;;;;;;;;;;;2.04;80.50;98048.55;220439;1274;25424;-71
2022/02/07 14:41:46;;;;;;;;;;;;;;;;;;;;;
2022/02/07 14:47:26;;;;;;;;;;;;;;;2.18;79.84;98063.91;220446;1274;22551;-73
2022/02/07 14:52:31;;;;;;;;;;;;;;;2.23;79.73;98072.66;220563;1274;22531;-73
2022/02/07 14:57:34;;;;;;;;;;;;;;;2.26;79.42;98079.77;220476;1273;24231;-73
2022/02/07 15:03:19;;;;;;;;;;;;;;;2.29;79.38;98080.02;220658;1274;22618;-72
2022/02/07 15:09:02;;;;;;;;;;;;;;;2.32;79.11;98094.58;219984;1274;22564;-74
2022/02/07 15:14:13;;;;;;;;;;;;;;;2.27;79.00;98104.36;219871;1274;25256;-73
2022/02/07 15:19:24;;;;;;;;;;;;;;;2.15;79.49;98120.52;219691;1277;22532;-73
2022/02/07 15:25:19;;;;;;;;;;;;;;;1.91;80.07;98127.36;219776;1274;22616;-73
2022/02/07 15:30:29;;;;;;;;;;;;;;;1.59;81.14;98166.59;219655;1274;24255;-72
2022/02/07 15:35:57;;;;;;;;;;;;;;;1.08;82.24;98157.91;219937;1274;25257;-75
2022/02/07 15:41:25;;;;;;;;;;;;;;;0.76;83.35;98165.34;219843;1274;22670;-74
2022/02/07 15:46:51;;;;;;;;;;;;;;;0.64;84.24;98188.56;219891;1274;24839;-74
2022/02/07 15:52:11;;;;;;;;;;;;;;;0.62;84.46;98191.58;220101;1274;24483;-74
2022/02/07 15:57:29;;;;;;;;;;;;;;;0.61;84.91;98204.17;219997;1274;22688;-74
2022/02/07 16:02:40;;;;;;;;;;;;;;;0.62;85.22;98216.63;219941;1273;22728;-74
2022/02/07 16:07:49;;;;;;;;;;;;;;;0.64;85.24;98222.98;219942;1273;25411;-73
2022/02/07 16:18:21;;;;;;;;;;;;;;;0.67;85.52;98243.50;219929;1273;24261;-73
2022/02/07 16:23:34;;;;;;;;;;;;;;;0.67;85.56;98242.95;220324;1273;22551;-73
2022/02/07 16:29:01;;;;;;;;;;;;;;;0.67;85.52;98257.35;220116;1273;22612;-74
2022/02/07 16:34:15;;;;;;;;;;;;;;;;;;;;;
2022/02/07 16:39:24;;;;;;;;;;;;;;;0.72;86.00;98288.04;220102;1273;22674;-76
2022/02/07 16:44:35;;;;;;;;;;;;;;;0.78;86.01;98290.39;219995;1273;22582;-76
2022/02/07 16:49:51;;;;;;;;;;;;;;;0.83;86.20;98296.23;220033;1273;22628;-73
2022/02/07 16:55:18;;;;;;;;;;;;;;;0.89;86.26;98304.48;220102;1274;24592;-73
2022/02/07 17:00:45;;;;;;;;;;;;;;;0.96;85.90;98309.92;220158;1273;22527;-74
2022/02/07 17:06:22;;;;;;;;;;;;;;;1.03;86.24;98319.71;220313;1273;22597;-75
2022/02/07 17:11:36;;;;;;;;;;;;;;;1.11;86.00;98325.65;220035;1273;24791;-74
2022/02/07 17:16:51;;;;;;;;;;;;;;;1.18;86.00;98332.73;220412;1272;25590;-74
2022/02/07 17:27:55;;;;;;;;;;;;;;;1.31;85.63;98339.96;220026;1273;22722;-74
2022/02/07 17:33:03;;;;;;;;;;;;;;;1.35;85.53;98342.95;220163;1272;22693;-74
2022/02/07 17:38:54;;;;;;;;;;;;;;;;;;;;;
2022/02/07 17:43:58;;;;;;;;;;;;;;;1.50;85.32;98361.92;220441;1273;24218;-74
2022/02/07 17:49:19;;;;;;;;;;;;;;;;;;;;;
2022/02/07 17:55:22;;;;;;;;;;;;;;;;;;;;;
2022/02/07 18:01:15;;;;;;;;;;;;;;;1.67;84.61;98404.88;220001;1273;22532;-74
2022/02/07 18:06:33;;;;;;;;;;;;;;;1.72;84.34;98409.27;220309;1273;25372;-73
2022/02/07 18:12:09;;;;;;;;;;;;;;;1.75;84.17;98415.55;220206;1273;23366;-72
2022/02/07 18:17:20;;;;;;;;;;;;;;;1.81;83.80;98426.23;220237;1273;22549;-74
2022/02/07 18:22:27;;;;;;;;;;;;;;;1.84;83.61;98431.98;220507;1273;22550;-74
2022/02/07 18:27:43;;;;;;;;;;;;;;;1.87;83.32;98438.46;220493;1273;25248;-74
2022/02/07 18:33:15;;;;;;;;;;;;;;;1.90;83.18;98446.45;220351;1273;23120;-74
2022/02/07 18:38:28;;;;;;;;;;;;;;;1.93;83.11;98458.32;219826;1274;22546;-74
2022/02/07 18:43:42;;;;;;;;;;;;;;;1.94;82.98;98465.98;219838;1273;25360;-74
2022/02/07 18:48:55;;;;;;;;;;;;;;;1.95;82.46;98461.84;219886;1273;25254;-73
2022/02/07 18:54:10;;;;;;;;;;;;;;;1.99;81.61;98478.92;220174;1273;22525;-74
2022/02/07 18:59:32;;;;;;;;;;;;;;;1.97;80.81;98493.52;220305;1272;25305;-74
2022/02/07 19:05:12;;;;;;;;;;;;;;;1.91;80.64;98505.53;220296;1273;23754;-74
2022/02/07 19:10:00;;;;;;;;;;;;;;;1.78;80.45;98505.99;220217;1273;22532;-74
2022/02/07 19:15:04;;;;;;;;;;;;;;;1.66;80.52;98510.36;219867;1273;25484;-74
2022/02/07 19:20:14;;;;;;;;;;;;;;;1.58;80.77;98531.71;219993;1273;24361;-74
2022/02/07 19:25:27;;;;;;;;;;;;;;;1.54;80.94;98549.13;220009;1273;24418;-75
2022/02/07 19:30:47;;;;;;;;;;;;;;;;;;;;;
2022/02/07 19:36:25;;;;;;;;;;;;;;;;;;;;;
2022/02/07 19:42:09;;;;;;;;;;;;;;;1.31;81.36;98563.15;219723;1274;22528;-74
2022/02/07 19:47:37;;;;;;;;;;;;;;;1.17;81.53;98567.17;219904;1274;22629;-74
2022/02/07 19:52:52;;;;;;;;;;;;;;;1.07;82.12;98584.95;219831;1274;25249;-73
2022/02/07 19:58:06;;;;;;;;;;;;;;;0.99;82.28;98597.55;219841;1274;24513;-74
2022/02/07 20:03:20;;;;;;;;;;;;;;;0.89;82.31;98607.09;219675;1274;24101;-74
2022/02/07 20:08:29;;;;;;;;;;;;;;;0.81;82.58;98614.65;219765;1274;25426;-74
2022/02/07 20:13:39;;;;;;;;;;;;;;;0.73;82.83;98616.20;219575;1276;22527;-74
2022/02/07 20:19:04;;;;;;;;;;;;;;;0.64;82.79;98621.45;219695;1274;22637;-74
2022/02/07 20:24:07;;;;;;;;;;;;;;;0.58;82.73;98622.67;219455;1276;22530;-74
2022/02/07 20:29:42;;;;;;;;;;;;;;;0.55;82.79;98624.98;219636;1276;24272;-74
2022/02/07 20:35:11;;;;;;;;;;;;;;;0.49;82.88;98631.20;219840;1273;22546;-74
2022/02/07 20:40:16;;;;;;;;;;;;;;;0.44;82.87;98640.88;219774;1273;22544;-74
2022/02/07 20:45:35;;;;;;;;;;;;;;;0.37;83.05;98651.13;219896;1273;24286;-73
2022/02/07 20:50:37;;;;;;;;;;;;;;;0.31;82.95;98667.23;219872;1273;24320;-73
2022/02/07 20:55:47;;;;;;;;;;;;;;;0.29;83.07;98666.47;220152;1273;22508;-74
2022/02/07 21:01:22;;;;;;;;;;;;;;;0.28;82.96;98671.77;219933;1273;22534;-74
2022/02/07 21:06:42;;;;;;;;;;;;;;;0.26;83.09;98681.69;219842;1273;25304;-73
2022/02/07 21:12:41;;;;;;;;;;;;;;;0.24;83.02;98681.83;219958;1273;22549;-74
2022/02/07 21:17:52;;;;;;;;;;;;;;;0.26;83.11;98690.07;219909;1273;25283;-74
2022/02/07 21:22:58;;;;;;;;;;;;;;;0.38;83.20;98700.95;219936;1273;24263;-74
2022/02/07 21:28:03;;;;;;;;;;;;;;;0.48;83.07;98707.86;219826;1273;22714;-73
2022/02/07 21:33:27;;;;;;;;;;;;;;;0.63;82.79;98722.42;219866;1273;22544;-74
2022/02/07 21:38:53;;;;;;;;;;;;;;;0.76;82.36;98728.29;219715;1274;22636;-74
2022/02/07 21:43:58;;;;;;;;;;;;;;;0.86;82.32;98749.06;219723;1274;22759;-74
2022/02/07 21:49:21;;;;;;;;;;;;;;;;;;;;;
2022/02/07 21:54:30;;;;;;;;;;;;;;;1.01;81.35;98758.83;219838;1274;25462;-74
2022/02/07 21:59:56;;;;;;;;;;;;;;;1.06;81.16;98759.38;219747;1274;22556;-73
2022/02/07 22:05:44;;;;;;;;;;;;;;;1.10;80.83;98765.71;219778;1274;23433;-73
2022/02/07 22:11:14;;;;;;;;;;;;;;;;;;;;;
2022/02/07 22:17:15;;;;;;;;;;;;;;;1.22;80.62;98776.48;219788;1274;23014;-73
2022/02/07 22:22:31;;;;;;;;;;;;;;;1.29;80.71;98788.69;219686;1274;24463;-74
2022/02/07 22:28:35;;;;;;;;;;;;;;;;;;;;;
2022/02/07 22:34:46;;;;;;;;;;;;;;;1.35;80.30;98812.71;219825;1274;22645;-73
2022/02/07 22:40:40;;;;;;;;;;;;;;;1.38;80.03;98822.59;219796;1274;22619;-73
2022/02/07 22:46:23;;;;;;;;;;;;;;;1.39;80.09;98822.61;219788;1274;22542;-73
2022/02/07 22:52:38;;;;;;;;;;;;;;;;;;;;;
2022/02/07 22:58:18;;;;;;;;;;;;;;;1.40;80.14;98848.98;219440;1276;25254;-74
2022/02/07 23:34:42;;;;;;;;;;;;;;;1.47;79.32;98885.36;219826;1274;23320;-74
2022/02/07 23:47:59;;;;;;;;;;;;;;;1.49;79.02;98888.60;219848;1274;22529;-73
